createdAt,value
2018-06-08T00:01:31.473Z,3.98
2018-06-08T00:06:37.604Z,4.28
2018-06-08T00:11:47.873Z,3.83
2018-06-08T00:16:53.313Z,4.97
2018-06-08T00:21:58.048Z,5.90
2018-06-08T00:27:02.945Z,5.70
2018-06-08T00:32:07.906Z,4.33
2018-06-08T00:37:12.843Z,5.17
2018-06-08T00:42:24.155Z,5.33
2018-06-08T00:47:29.200Z,6.90
2018-06-08T00:52:41.157Z,4.25
2018-06-08T00:57:46.115Z,5.47
2018-06-08T01:02:51.151Z,6.22
2018-06-08T01:08:15.487Z,5.28
2018-06-08T01:13:21.091Z,5.80
2018-06-08T01:18:36.241Z,5.50
2018-06-08T01:29:15.862Z,4.45
2018-06-08T01:34:22.322Z,5.30
2018-06-08T01:39:27.278Z,4.53
2018-06-08T01:44:35.121Z,5.72
2018-06-08T01:49:39.727Z,5.00
2018-06-08T01:54:46.245Z,6.55
2018-06-08T01:59:53.541Z,5.25
2018-06-08T02:04:58.483Z,4.60
2018-06-08T02:10:04.876Z,3.95
2018-06-08T02:15:09.911Z,4.42
2018-06-08T02:20:16.647Z,5.78
2018-06-08T02:30:55.893Z,4.78
2018-06-08T02:36:01.103Z,5.65
2018-06-08T02:41:07.774Z,4.22
2018-06-08T02:46:12.452Z,4.95
2018-06-08T02:51:17.312Z,4.90
2018-06-08T02:56:22.165Z,5.05
2018-06-08T03:01:26.834Z,4.15
2018-06-08T03:06:31.533Z,5.22
2018-06-08T03:11:36.226Z,6.30
2018-06-08T03:16:40.850Z,6.65
2018-06-08T03:21:45.575Z,6.97
2018-06-08T03:26:49.669Z,6.85
2018-06-08T03:31:54.323Z,6.83
2018-06-08T03:36:59.058Z,5.35
2018-06-08T03:42:03.670Z,4.80
2018-06-08T03:47:08.450Z,5.00
2018-06-08T03:52:13.049Z,4.65
2018-06-08T03:57:17.789Z,6.00
2018-06-08T04:02:23.099Z,5.35
2018-06-08T04:07:27.780Z,5.53
2018-06-08T04:12:32.552Z,5.83
2018-06-08T04:17:39.619Z,5.70
2018-06-08T04:22:44.607Z,6.20
2018-06-08T04:27:49.377Z,5.42
2018-06-08T04:32:54.879Z,6.03
2018-06-08T04:37:59.600Z,5.00
2018-06-08T04:43:04.440Z,5.25
2018-06-08T04:48:09.510Z,4.37
2018-06-08T04:53:14.356Z,4.58
2018-06-08T04:58:18.997Z,6.00
2018-06-08T05:03:24.039Z,7.67
2018-06-08T05:08:28.893Z,6.40
2018-06-08T05:13:34.018Z,4.85
2018-06-08T05:18:38.732Z,5.58
2018-06-08T05:23:43.516Z,7.10
2018-06-08T05:28:48.352Z,6.62
2018-06-08T05:33:52.982Z,7.28
2018-06-08T05:38:58.119Z,7.47
2018-06-08T05:44:02.881Z,8.05
2018-06-08T05:49:07.619Z,7.45
2018-06-08T05:54:12.502Z,12.43
2018-06-08T05:59:17.516Z,14.90
2018-06-08T06:04:22.106Z,12.10
2018-06-08T06:09:27.077Z,14.53
2018-06-08T06:14:31.834Z,14.23
2018-06-08T06:19:36.608Z,12.25
2018-06-08T06:24:41.301Z,10.80
2018-06-08T06:29:46.016Z,11.80
2018-06-08T06:34:50.997Z,11.50
2018-06-08T06:39:56.719Z,14.15
2018-06-08T06:45:01.689Z,13.55
2018-06-08T06:50:06.707Z,16.55
2018-06-08T06:55:11.983Z,13.13
2018-06-08T07:00:16.817Z,15.48
2018-06-08T07:05:21.584Z,12.95
2018-06-08T07:10:26.427Z,16.77
2018-06-08T07:15:31.798Z,15.65
2018-06-08T07:20:37.113Z,15.68
2018-06-08T07:25:42.192Z,12.40
2018-06-08T07:30:46.967Z,13.95
2018-06-08T07:35:51.533Z,13.13
2018-06-08T07:40:56.426Z,13.45
2018-06-08T07:46:01.575Z,14.93
2018-06-08T07:51:06.518Z,15.20
2018-06-08T07:56:11.442Z,16.52
2018-06-08T08:01:16.287Z,13.83
2018-06-08T08:06:20.997Z,14.93
2018-06-08T08:11:26.022Z,15.10
2018-06-08T08:16:30.759Z,16.45
2018-06-08T08:21:36.022Z,15.00
2018-06-08T08:26:40.814Z,13.22
2018-06-08T08:31:45.682Z,13.45
2018-06-08T08:36:50.531Z,14.68
2018-06-08T08:41:55.287Z,13.70
2018-06-08T08:47:00.097Z,14.30
2018-06-08T08:52:04.921Z,15.70
2018-06-08T08:57:10.031Z,12.90
2018-06-08T09:02:14.705Z,14.90
2018-06-08T09:07:19.470Z,14.07
2018-06-08T09:12:24.808Z,17.70
2018-06-08T09:17:29.858Z,16.82
2018-06-08T09:22:34.795Z,13.30
2018-06-08T09:27:39.153Z,14.00
2018-06-08T09:32:43.842Z,14.40
2018-06-08T09:37:48.791Z,16.30
2018-06-08T09:42:53.646Z,14.83
2018-06-08T09:47:58.274Z,16.50
2018-06-08T09:53:02.997Z,15.98
2018-06-08T09:58:07.864Z,16.85
2018-06-08T10:03:13.052Z,16.85
2018-06-08T10:08:18.047Z,17.30
2018-06-08T10:13:23.069Z,14.20
2018-06-08T10:18:28.407Z,15.63
2018-06-08T10:23:33.091Z,15.83
2018-06-08T10:28:38.018Z,17.42
2018-06-08T10:33:42.740Z,14.25
2018-06-08T10:38:47.561Z,19.90
2018-06-08T10:43:52.829Z,16.02
2018-06-08T10:48:57.099Z,16.82
2018-06-08T10:54:02.103Z,13.35
2018-06-08T10:59:06.724Z,15.25
2018-06-08T11:04:11.253Z,13.85
2018-06-08T11:09:15.758Z,14.30
2018-06-08T11:14:20.722Z,14.05
2018-06-08T11:19:25.566Z,13.03
2018-06-08T11:24:30.194Z,10.90
2018-06-08T11:29:35.190Z,12.93
2018-06-08T11:34:39.981Z,12.73
2018-06-08T11:39:44.224Z,14.98
2018-06-08T11:44:48.923Z,14.73
2018-06-08T11:49:53.690Z,10.28
2018-06-08T11:54:58.307Z,13.18
2018-06-08T12:00:02.632Z,10.25
2018-06-08T12:05:07.734Z,10.98
2018-06-08T12:10:12.910Z,10.55
2018-06-08T12:15:17.872Z,9.73
2018-06-08T12:20:22.821Z,12.50
2018-06-08T12:25:27.151Z,8.23
2018-06-08T12:30:32.296Z,9.78
2018-06-08T12:35:36.974Z,8.33
2018-06-08T12:40:41.614Z,8.58
2018-06-08T12:45:46.254Z,8.45
2018-06-08T12:50:51.113Z,8.58
2018-06-08T12:55:55.752Z,6.10
2018-06-08T13:01:00.500Z,7.83
2018-06-08T13:06:05.222Z,6.87
2018-06-08T13:11:10.177Z,6.97
2018-06-08T13:16:14.992Z,6.72
2018-06-08T13:21:19.772Z,6.85
2018-06-08T13:26:24.560Z,7.12
2018-06-08T13:31:29.214Z,6.85
2018-06-08T13:36:34.492Z,7.75
2018-06-08T13:41:39.320Z,7.70
2018-06-08T13:47:50.282Z,7.40
2018-06-08T13:52:55.226Z,7.95
2018-06-08T13:58:00.156Z,9.85
2018-06-08T14:03:05.103Z,8.43
2018-06-08T14:08:09.697Z,7.22
2018-06-08T14:13:15.332Z,6.75
2018-06-08T14:18:20.244Z,5.05
2018-06-08T14:23:25.253Z,6.97
2018-06-08T14:28:29.969Z,6.90
2018-06-08T14:33:34.758Z,5.15
2018-06-08T14:38:39.507Z,23.10
2018-06-08T14:43:44.198Z,18.48
2018-06-08T14:48:49.754Z,14.73
2018-06-08T14:53:54.956Z,8.23
2018-06-08T14:58:59.909Z,8.38
2018-06-08T15:04:04.822Z,11.60
2018-06-08T15:09:09.743Z,11.57
2018-06-08T15:14:14.428Z,6.53
2018-06-08T15:19:19.194Z,6.25
2018-06-08T15:24:25.523Z,10.55
2018-06-08T15:29:31.477Z,7.87
2018-06-08T15:34:36.279Z,6.17
2018-06-08T15:39:40.950Z,7.85
2018-06-08T15:44:45.864Z,8.45
2018-06-08T15:49:50.468Z,7.83
2018-06-08T15:54:55.212Z,7.58
2018-06-08T16:00:00.100Z,5.67
2018-06-08T16:05:05.012Z,7.53
2018-06-08T16:10:09.834Z,6.17
2018-06-08T16:15:14.653Z,7.62
2018-06-08T16:20:20.077Z,7.08
2018-06-08T16:25:25.167Z,7.47
2018-06-08T16:30:30.140Z,7.87
2018-06-08T16:35:35.169Z,6.28
2018-06-08T16:40:39.902Z,8.78
2018-06-08T16:45:44.567Z,10.03
2018-06-08T16:50:49.787Z,4.65
2018-06-08T16:55:54.666Z,7.33
2018-06-08T17:00:59.485Z,8.08
2018-06-08T17:06:04.425Z,8.93
2018-06-08T17:11:09.138Z,7.42
2018-06-08T17:16:14.338Z,8.73
2018-06-08T17:21:19.438Z,6.70
2018-06-08T17:26:24.290Z,7.00
2018-06-08T17:31:29.800Z,7.03
2018-06-08T17:36:34.470Z,7.28
2018-06-08T17:41:40.481Z,7.00
2018-06-08T17:46:45.360Z,8.00
2018-06-08T17:51:50.067Z,8.25
2018-06-08T17:56:54.939Z,7.80
2018-06-08T18:01:59.958Z,8.38
2018-06-08T18:07:04.807Z,7.53
2018-06-08T18:12:09.825Z,7.55
2018-06-08T18:17:14.622Z,8.53
2018-06-08T18:22:19.732Z,11.12
2018-06-08T18:27:24.789Z,10.50
2018-06-08T18:32:29.496Z,9.55
2018-06-08T18:37:34.238Z,9.85
2018-06-08T18:42:39.084Z,9.15
2018-06-08T18:47:43.740Z,11.43
2018-06-08T18:52:48.471Z,10.23
2018-06-08T18:57:53.694Z,11.35
2018-06-08T19:02:58.561Z,13.00
2018-06-08T19:08:03.623Z,10.70
2018-06-08T19:13:08.453Z,8.90
2018-06-08T19:18:14.737Z,11.33
2018-06-08T19:23:19.424Z,10.13
2018-06-08T19:28:24.270Z,9.68
2018-06-08T19:33:28.460Z,11.00
2018-06-08T19:38:33.022Z,12.85
2018-06-08T19:43:38.169Z,10.05
2018-06-08T19:48:42.909Z,13.18
2018-06-08T19:53:47.596Z,12.93
2018-06-08T19:58:52.692Z,14.87
2018-06-08T20:03:58.380Z,11.57
2018-06-08T20:09:03.291Z,9.43
2018-06-08T20:14:08.006Z,13.15
2018-06-08T20:19:12.664Z,11.18
2018-06-08T20:24:17.909Z,14.03
2018-06-08T20:29:23.184Z,11.20
2018-06-08T20:34:28.322Z,12.23
2018-06-08T20:39:32.995Z,9.83
2018-06-08T20:44:37.989Z,12.73
2018-06-08T20:49:42.835Z,14.28
2018-06-08T20:54:47.572Z,10.48
2018-06-08T20:59:52.604Z,14.90
2018-06-08T21:04:57.333Z,11.48
2018-06-08T21:10:01.981Z,11.80
2018-06-08T21:15:07.084Z,11.97
2018-06-08T21:20:13.201Z,11.63
2018-06-08T21:25:17.912Z,10.65
2018-06-08T21:30:22.543Z,9.48
2018-06-08T21:35:27.470Z,11.35
2018-06-08T21:40:32.051Z,11.10
2018-06-08T21:45:36.779Z,11.08
2018-06-08T21:50:41.559Z,11.53
2018-06-08T21:55:47.328Z,11.43
2018-06-08T22:00:52.160Z,12.07
2018-06-08T22:05:57.265Z,11.60
2018-06-08T22:11:02.450Z,9.85
2018-06-08T22:16:07.182Z,9.78
2018-06-08T22:21:12.089Z,8.08
2018-06-08T22:26:16.998Z,8.25
2018-06-08T22:31:22.381Z,11.33
2018-06-08T22:36:27.197Z,9.10
2018-06-08T22:41:31.418Z,9.10
2018-06-08T22:46:36.243Z,8.15
2018-06-08T22:51:41.093Z,8.35
2018-06-08T22:56:45.948Z,11.73
2018-06-08T23:01:50.526Z,8.68
2018-06-08T23:06:55.489Z,9.58
2018-06-08T23:12:00.236Z,7.60
2018-06-08T23:17:05.008Z,9.18
2018-06-08T23:22:10.191Z,10.55
2018-06-08T23:27:15.137Z,11.50
2018-06-08T23:32:19.715Z,9.15
2018-06-08T23:37:24.534Z,10.60
2018-06-08T23:42:29.475Z,8.78
2018-06-08T23:47:34.127Z,11.12
2018-06-08T23:52:38.931Z,7.97
2018-06-08T23:57:43.571Z,9.20
